Time;durP1;ratioP1;P1;durP2;ratioP2;P2;SDS_P1;SDS_P2;PMS_P1;PMS_P2;Temp;Humidity;BMP_temperature;BMP_pressure;BME280_temperature;BME280_humidity;BME280_pressure;Samples;Min_cycle;Max_cycle;Signal;HPM_P1;HPM_P2
2022/05/21 00:01:46;;;;;;;3.07;1.77;;;24.60;51.10;;;;;;5117570;28;20542;-82
2022/05/21 00:04:14;;;;;;;10.53;1.83;;;24.60;50.90;;;;;;5106464;28;20464;-81
2022/05/21 00:06:42;;;;;;;4.53;1.83;;;24.60;50.60;;;;;;5118570;28;20467;-81
2022/05/21 00:09:10;;;;;;;4.17;1.80;;;24.50;50.50;;;;;;5118798;28;20470;-82
2022/05/21 00:11:39;;;;;;;4.43;1.77;;;24.50;50.50;;;;;;5119914;28;20436;-81
2022/05/21 00:14:08;;;;;;;1.83;1.73;;;24.40;50.20;;;;;;5121334;28;20430;-83
2022/05/21 00:16:37;;;;;;;5.20;1.60;;;24.40;50.30;;;;;;5116510;28;20469;-83
2022/05/21 00:19:06;;;;;;;1.87;1.70;;;24.30;50.10;;;;;;5121619;28;20460;-85
2022/05/21 00:21:34;;;;;;;1.43;1.40;;;24.20;49.90;;;;;;5117662;28;20820;-82
2022/05/21 00:24:02;;;;;;;1.60;1.50;;;24.20;49.90;;;;;;5119601;28;20466;-83
2022/05/21 00:26:30;;;;;;;4.93;1.40;;;24.10;49.70;;;;;;5119447;28;20511;-83
2022/05/21 00:28:58;;;;;;;3.17;1.50;;;24.10;49.60;;;;;;5118367;28;20414;-82
2022/05/21 00:31:26;;;;;;;1.77;1.50;;;24.10;49.40;;;;;;5118047;28;20536;-82
2022/05/21 00:33:55;;;;;;;1.97;1.40;;;24.00;49.20;;;;;;5118081;28;20522;-82
2022/05/21 00:36:24;;;;;;;1.70;1.60;;;24.00;49.20;;;;;;5117716;28;20467;-82
2022/05/21 00:38:52;;;;;;;5.13;1.50;;;24.00;49.00;;;;;;5117259;28;20556;-82
2022/05/21 00:41:20;;;;;;;1.57;1.30;;;23.90;48.80;;;;;;5116977;28;20472;-82
2022/05/21 00:43:50;;;;;;;1.40;1.30;;;23.90;48.70;;;;;;5117744;28;20444;-82
2022/05/21 00:46:19;;;;;;;1.63;1.33;;;23.90;48.50;;;;;;5112675;28;20440;-82
2022/05/21 00:48:53;;;;;;;2.00;1.47;;;23.80;48.40;;;;;;5118162;28;20410;-82
2022/05/21 00:51:24;;;;;;;1.40;1.30;;;23.80;48.30;;;;;;5118214;28;21020;-82
2022/05/21 00:53:53;;;;;;;1.53;1.43;;;23.80;48.20;;;;;;5117943;28;20432;-82
2022/05/21 00:56:21;;;;;;;1.17;1.07;;;23.80;48.10;;;;;;5115378;28;20440;-82
2022/05/21 01:01:36;;;;;;;1.30;1.20;;;23.80;47.90;;;;;;5118142;28;20463;-82
2022/05/21 01:04:05;;;;;;;1.30;1.20;;;23.70;47.80;;;;;;5116673;28;20539;-82
2022/05/21 01:06:34;;;;;;;1.23;1.13;;;23.70;47.70;;;;;;5113128;28;20427;-82
2022/05/21 01:09:02;;;;;;;2.80;1.33;;;23.70;47.70;;;;;;5116793;28;20503;-82
2022/05/21 01:11:30;;;;;;;1.50;1.23;;;23.70;47.40;;;;;;5117291;28;20483;-82
2022/05/21 01:13:58;;;;;;;2.57;1.10;;;23.70;47.50;;;;;;5117601;28;20495;-82
2022/05/21 01:16:27;;;;;;;1.40;1.30;;;23.70;47.50;;;;;;5117335;28;20446;-82
2022/05/21 01:18:56;;;;;;;1.20;1.10;;;23.60;47.20;;;;;;5117198;28;20496;-82
2022/05/21 01:21:24;;;;;;;2.40;1.30;;;23.60;47.20;;;;;;5117269;28;20468;-82
2022/05/21 01:23:53;;;;;;;1.30;1.20;;;23.60;47.10;;;;;;5117497;28;20535;-82
2022/05/21 01:26:22;;;;;;;1.20;1.20;;;23.60;47.00;;;;;;5117817;28;20471;-82
2022/05/21 01:28:50;;;;;;;1.43;1.30;;;23.60;47.00;;;;;;5117200;28;20467;-82
2022/05/21 01:31:18;;;;;;;1.60;1.50;;;23.50;47.00;;;;;;5117177;28;20459;-82
2022/05/21 01:33:47;;;;;;;2.07;1.40;;;23.50;46.90;;;;;;5117423;28;20414;-82
2022/05/21 01:36:15;;;;;;;0.90;0.90;;;23.50;46.80;;;;;;5117055;28;20825;-82
2022/05/21 01:38:45;;;;;;;1.50;1.40;;;23.50;46.80;;;;;;5116622;28;20464;-82
2022/05/21 01:41:15;;;;;;;2.03;1.10;;;23.50;46.70;;;;;;5116756;28;20464;-82
2022/05/21 01:46:29;;;;;;;1.10;1.10;;;23.50;47.10;;;;;;5116710;28;20531;-82
2022/05/21 01:48:57;;;;;;;1.47;1.30;;;23.40;46.30;;;;;;5116261;28;20493;-82
2022/05/21 01:51:25;;;;;;;1.20;1.20;;;23.40;46.40;;;;;;5116245;28;20499;-82
2022/05/21 01:53:53;;;;;;;6.23;1.20;;;23.40;46.30;;;;;;5116313;28;20501;-82
2022/05/21 01:56:22;;;;;;;1.40;1.10;;;23.40;46.30;;;;;;5116846;28;20455;-82
2022/05/21 01:58:50;;;;;;;1.57;1.27;;;23.40;46.30;;;;;;5116939;28;20454;-82
2022/05/21 02:01:18;;;;;;;1.17;1.00;;;23.40;46.10;;;;;;5116107;28;20485;-82
2022/05/21 02:03:47;;;;;;;2.03;1.40;;;23.40;46.20;;;;;;5116102;28;20518;-82
2022/05/21 02:06:15;;;;;;;1.37;1.27;;;23.40;46.10;;;;;;5116139;28;20526;-82
2022/05/21 02:08:43;;;;;;;1.20;1.10;;;23.40;46.00;;;;;;5116451;28;20474;-82
2022/05/21 02:11:12;;;;;;;1.23;1.10;;;23.30;46.00;;;;;;5116158;28;20463;-82
2022/05/21 02:13:41;;;;;;;1.10;1.00;;;23.30;45.90;;;;;;5115343;28;20436;-82
2022/05/21 02:16:09;;;;;;;1.20;1.10;;;23.30;45.90;;;;;;5117807;28;20517;-82
2022/05/21 02:18:37;;;;;;;1.30;1.20;;;23.30;45.80;;;;;;5119907;28;20477;-82
2022/05/21 02:21:07;;;;;;;1.47;1.30;;;23.30;45.70;;;;;;5120266;28;20442;-81
2022/05/21 02:23:35;;;;;;;3.23;1.50;;;23.20;45.70;;;;;;5119983;28;20423;-82
2022/05/21 02:26:03;;;;;;;1.10;1.10;;;23.30;45.70;;;;;;5100017;28;20415;-82
2022/05/21 02:28:32;;;;;;;1.77;1.27;;;23.20;45.80;;;;;;5099932;28;20444;-82
2022/05/21 02:31:01;;;;;;;1.73;1.30;;;23.20;45.70;;;;;;5100012;28;20518;-82
2022/05/21 02:33:30;;;;;;;1.40;1.30;;;23.20;45.70;;;;;;5100626;28;20789;-82
2022/05/21 02:35:58;;;;;;;1.47;1.37;;;23.20;45.60;;;;;;5100032;28;20456;-82
2022/05/21 02:41:12;;;;;;;1.40;1.30;;;23.20;45.70;;;;;;5099277;28;20559;-82
2022/05/21 02:43:40;;;;;;;1.73;1.50;;;23.10;45.60;;;;;;5099051;28;20445;-82
2022/05/21 02:46:10;;;;;;;1.90;1.40;;;23.10;45.70;;;;;;5098816;28;20447;-82
2022/05/21 02:48:38;;;;;;;1.50;1.40;;;23.20;45.70;;;;;;5099687;28;20415;-82
2022/05/21 02:51:06;;;;;;;1.20;1.10;;;23.10;45.60;;;;;;5100046;28;20464;-80
2022/05/21 02:53:34;;;;;;;1.90;1.70;;;23.10;45.60;;;;;;5099784;28;20521;-80
2022/05/21 02:56:06;;;;;;;1.87;1.77;;;23.20;45.60;;;;;;5113623;28;20410;-82
2022/05/21 02:58:35;;;;;;;1.77;1.67;;;23.10;45.60;;;;;;5119066;28;20471;-82
2022/05/21 03:01:03;;;;;;;2.20;1.80;;;23.10;45.60;;;;;;5118955;28;20500;-81
2022/05/21 03:03:32;;;;;;;1.50;1.50;;;23.10;45.60;;;;;;5119817;28;20418;-82
2022/05/21 03:06:00;;;;;;;2.03;1.90;;;23.10;45.50;;;;;;5119461;28;20447;-82
2022/05/21 03:11:14;;;;;;;1.80;1.70;;;23.10;45.30;;;;;;5118818;28;20434;-82
2022/05/21 03:13:42;;;;;;;2.00;1.90;;;23.10;45.30;;;;;;5119682;28;20440;-82
2022/05/21 03:16:11;;;;;;;2.30;2.10;;;23.10;45.30;;;;;;5119726;28;20474;-82
2022/05/21 03:18:41;;;;;;;1.97;1.87;;;23.10;45.30;;;;;;5119464;28;20555;-82
2022/05/21 03:21:09;;;;;;;1.87;1.77;;;23.10;45.30;;;;;;5119036;28;20491;-82
2022/05/21 03:23:38;;;;;;;2.07;1.87;;;23.10;45.20;;;;;;5119919;28;20440;-82
2022/05/21 03:26:06;;;;;;;2.03;1.83;;;23.10;45.30;;;;;;5119824;28;20436;-82
2022/05/21 03:28:34;;;;;;;2.40;2.20;;;23.10;45.20;;;;;;5118580;28;20432;-82
2022/05/21 03:31:02;;;;;;;2.57;2.37;;;23.10;45.20;;;;;;5119470;28;20469;-82
2022/05/21 03:33:30;;;;;;;2.23;2.13;;;23.10;45.20;;;;;;5119451;28;20422;-82
2022/05/21 03:36:00;;;;;;;2.90;2.47;;;23.10;45.20;;;;;;5119807;28;20423;-82
2022/05/21 03:38:28;;;;;;;3.40;2.33;;;23.10;45.30;;;;;;5118851;28;20423;-82
2022/05/21 03:40:56;;;;;;;2.33;2.13;;;23.10;45.20;;;;;;5118812;28;20502;-82
2022/05/21 03:43:24;;;;;;;2.40;1.90;;;23.10;45.20;;;;;;5118764;28;20475;-82
2022/05/21 03:45:53;;;;;;;2.33;2.13;;;23.10;45.10;;;;;;5119234;28;20418;-82
2022/05/21 03:48:21;;;;;;;2.20;2.10;;;23.10;45.30;;;;;;5119264;28;20448;-83
2022/05/21 03:50:49;;;;;;;2.60;2.40;;;23.10;45.10;;;;;;5119290;28;20464;-82
2022/05/21 03:53:18;;;;;;;2.23;2.10;;;23.10;45.20;;;;;;5117582;28;20480;-82
2022/05/21 03:55:46;;;;;;;2.00;1.90;;;23.10;45.30;;;;;;5117116;28;20502;-83
2022/05/21 03:58:15;;;;;;;2.27;2.17;;;23.10;45.30;;;;;;5117149;28;20525;-84
2022/05/21 04:00:43;;;;;;;2.33;2.23;;;23.10;45.20;;;;;;5117256;28;20458;-82
2022/05/21 04:03:11;;;;;;;2.40;2.20;;;23.00;45.00;;;;;;5117118;28;20440;-83
2022/05/21 04:05:39;;;;;;;2.73;1.97;;;23.00;45.20;;;;;;5117465;28;20452;-83
2022/05/21 04:08:08;;;;;;;2.60;2.43;;;23.00;45.20;;;;;;5117267;28;20439;-83
2022/05/21 04:10:37;;;;;;;2.73;2.40;;;23.00;45.10;;;;;;5116596;28;20547;-82
2022/05/21 04:13:05;;;;;;;4.07;2.63;;;23.00;45.10;;;;;;5117187;28;20500;-83
2022/05/21 04:15:33;;;;;;;2.70;2.40;;;23.00;45.40;;;;;;5117837;28;20432;-84
2022/05/21 04:18:02;;;;;;;3.53;2.90;;;23.00;45.30;;;;;;5117767;28;20497;-83
2022/05/21 04:20:32;;;;;;;4.53;2.57;;;23.00;45.20;;;;;;5116827;28;20467;-83
2022/05/21 04:23:00;;;;;;;4.97;3.13;;;23.00;45.30;;;;;;5116356;28;20539;-83
2022/05/21 04:25:28;;;;;;;4.60;3.00;;;23.00;45.40;;;;;;5116767;28;20528;-83
2022/05/21 04:27:57;;;;;;;3.20;3.00;;;23.00;45.20;;;;;;5116560;28;20439;-82
2022/05/21 04:30:28;;;;;;;3.20;3.00;;;23.00;45.40;;;;;;5116218;28;20490;-83
2022/05/21 04:32:56;;;;;;;3.47;3.17;;;23.00;45.40;;;;;;5116362;28;20418;-82
2022/05/21 04:35:24;;;;;;;3.80;3.50;;;23.00;45.30;;;;;;5115815;28;20419;-83
2022/05/21 04:37:52;;;;;;;2.87;2.67;;;23.00;45.40;;;;;;5116091;28;20475;-83
2022/05/21 04:40:22;;;;;;;4.23;2.70;;;23.00;45.50;;;;;;5116875;28;20450;-82
2022/05/21 04:42:50;;;;;;;3.80;3.30;;;23.00;45.30;;;;;;5116793;28;20434;-83
2022/05/21 04:45:20;;;;;;;3.40;2.80;;;23.00;45.50;;;;;;5116097;28;20444;-83
2022/05/21 04:47:48;;;;;;;3.20;2.93;;;23.00;45.40;;;;;;5116647;28;20470;-83
2022/05/21 04:50:16;;;;;;;3.47;3.10;;;23.10;45.40;;;;;;5115940;28;20532;-83
2022/05/21 04:52:44;;;;;;;3.13;2.90;;;23.00;45.40;;;;;;5116197;28;20448;-83
2022/05/21 04:55:12;;;;;;;3.20;3.00;;;23.00;45.20;;;;;;5114912;28;20535;-82
2022/05/21 04:57:41;;;;;;;6.67;2.80;;;23.10;45.30;;;;;;5115531;28;20463;-82
2022/05/21 05:00:09;;;;;;;3.40;2.97;;;23.10;45.30;;;;;;5115160;28;20502;-82
2022/05/21 05:02:39;;;;;;;3.33;2.60;;;23.10;45.30;;;;;;5115193;28;20415;-82
2022/05/21 05:05:08;;;;;;;3.53;3.20;;;23.10;45.30;;;;;;5115263;28;20673;-83
2022/05/21 05:07:38;;;;;;;3.97;3.47;;;23.10;45.20;;;;;;5116521;28;20428;-82
2022/05/21 05:10:07;;;;;;;5.10;3.00;;;23.10;45.20;;;;;;5115069;28;20502;-83
2022/05/21 05:12:35;;;;;;;3.93;3.03;;;23.10;45.10;;;;;;5116226;28;20443;-83
2022/05/21 05:15:04;;;;;;;2.87;2.63;;;23.10;45.10;;;;;;5115856;28;20509;-83
2022/05/21 05:17:32;;;;;;;3.37;2.90;;;23.10;45.00;;;;;;5116089;28;20481;-82
2022/05/21 05:20:02;;;;;;;3.00;2.80;;;23.20;45.10;;;;;;5115410;28;20499;-83
2022/05/21 05:22:30;;;;;;;2.60;2.40;;;23.20;45.00;;;;;;5115764;28;20448;-82
2022/05/21 05:25:04;;;;;;;4.47;2.97;;;23.30;45.20;;;;;;5115329;28;20448;-82
2022/05/21 05:27:33;;;;;;;2.53;2.33;;;23.30;45.00;;;;;;5115885;28;20453;-83
2022/05/21 05:30:01;;;;;;;2.83;2.63;;;23.30;45.00;;;;;;5115581;28;20438;-83
2022/05/21 05:32:30;;;;;;;5.73;2.80;;;23.40;44.90;;;;;;5115353;28;20443;-82
2022/05/21 05:34:58;;;;;;;3.03;2.60;;;23.50;45.00;;;;;;5115419;28;20509;-82
2022/05/21 05:37:28;;;;;;;2.67;2.40;;;23.50;44.80;;;;;;5115302;28;20993;-82
2022/05/21 05:39:56;;;;;;;2.30;2.20;;;23.50;44.90;;;;;;5114953;28;20499;-82
2022/05/21 05:42:24;;;;;;;3.20;2.40;;;23.40;44.80;;;;;;5115360;28;20463;-82
2022/05/21 05:44:52;;;;;;;2.83;2.50;;;23.40;45.00;;;;;;5115760;28;20452;-83
2022/05/21 05:47:21;;;;;;;3.60;2.43;;;23.40;45.00;;;;;;5115180;28;20531;-83
2022/05/21 05:49:49;;;;;;;3.53;2.70;;;23.40;45.10;;;;;;5115189;28;20444;-82
2022/05/21 05:52:17;;;;;;;2.80;2.37;;;23.50;45.00;;;;;;5119003;28;20494;-83
2022/05/21 05:54:46;;;;;;;2.90;2.50;;;23.50;45.10;;;;;;5118922;28;20435;-83
2022/05/21 05:57:15;;;;;;;3.40;2.63;;;23.60;44.90;;;;;;5118936;28;20788;-82
2022/05/21 05:59:51;;;;;;;4.13;2.60;;;23.60;45.00;;;;;;5119571;28;20470;-82
2022/05/21 06:05:06;;;;;;;4.70;2.17;;;23.70;44.80;;;;;;5118427;28;20402;-83
2022/05/21 06:07:35;;;;;;;3.30;2.43;;;23.70;44.70;;;;;;5118216;28;20488;-83
2022/05/21 06:10:05;;;;;;;5.43;2.43;;;23.70;45.00;;;;;;5118793;28;20442;-82
2022/05/21 06:12:35;;;;;;;2.70;2.03;;;23.70;44.90;;;;;;5118578;28;20418;-81
2022/05/21 06:15:04;;;;;;;6.73;2.13;;;23.70;45.00;;;;;;5118225;28;20417;-83
2022/05/21 06:17:33;;;;;;;3.63;1.87;;;23.80;45.00;;;;;;5118815;28;20485;-83
2022/05/21 06:20:01;;;;;;;3.57;2.20;;;23.80;45.00;;;;;;5119171;28;20468;-82
2022/05/21 06:22:29;;;;;;;5.03;2.30;;;23.80;44.90;;;;;;5119210;28;20451;-83
2022/05/21 06:25:01;;;;;;;5.03;2.10;;;23.80;44.90;;;;;;5119002;28;20440;-82
2022/05/21 06:27:30;;;;;;;5.07;2.57;;;23.90;45.10;;;;;;5118543;28;20497;-82
2022/05/21 06:29:58;;;;;;;4.60;2.23;;;23.90;45.00;;;;;;5118505;28;20487;-83
2022/05/21 06:32:26;;;;;;;4.27;2.20;;;24.00;45.00;;;;;;5118940;28;20447;-82
2022/05/21 06:34:54;;;;;;;3.43;1.83;;;24.00;44.90;;;;;;5118822;28;20431;-81
2022/05/21 06:37:22;;;;;;;2.27;1.83;;;24.00;44.90;;;;;;5117845;28;20474;-82
2022/05/21 06:39:50;;;;;;;3.53;1.80;;;24.10;44.90;;;;;;5118320;28;20474;-83
2022/05/21 06:42:18;;;;;;;2.20;2.00;;;24.10;44.70;;;;;;5118471;28;20493;-82
2022/05/21 06:44:47;;;;;;;3.00;1.80;;;24.10;44.70;;;;;;5118407;28;20418;-82
2022/05/21 06:47:15;;;;;;;5.13;2.17;;;24.10;44.70;;;;;;5118188;28;20510;-83
2022/05/21 06:49:44;;;;;;;3.00;2.23;;;24.10;44.80;;;;;;5118347;28;20443;-82
2022/05/21 06:52:12;;;;;;;2.10;1.90;;;24.10;44.80;;;;;;5118154;28;20439;-82
2022/05/21 06:54:40;;;;;;;4.40;2.10;;;24.10;44.80;;;;;;5118133;28;20442;-82
2022/05/21 06:57:10;;;;;;;2.10;1.70;;;24.20;44.90;;;;;;5118591;28;20452;-82
2022/05/21 06:59:38;;;;;;;4.20;1.80;;;24.30;44.90;;;;;;5118594;28;20498;-82
2022/05/21 07:02:08;;;;;;;2.87;1.90;;;24.30;44.70;;;;;;5117310;28;20529;-82
2022/05/21 07:07:33;;;;;;;4.60;2.03;;;24.40;44.70;;;;;;5117632;28;20504;-83
2022/05/21 07:10:01;;;;;;;4.13;2.10;;;24.40;44.70;;;;;;5104624;28;20575;-82
2022/05/21 07:12:29;;;;;;;3.00;1.90;;;24.50;44.70;;;;;;5118007;28;20523;-83
2022/05/21 07:14:58;;;;;;;2.30;1.53;;;24.40;44.70;;;;;;5119097;28;20413;-83
2022/05/21 07:17:27;;;;;;;2.13;1.60;;;24.50;44.80;;;;;;5112878;28;20516;-83
2022/05/21 07:19:55;;;;;;;2.73;1.60;;;24.60;44.80;;;;;;5109514;28;20524;-82
2022/05/21 07:22:23;;;;;;;4.33;1.80;;;24.60;44.80;;;;;;5117725;28;20473;-83
2022/05/21 07:24:51;;;;;;;2.70;1.67;;;24.70;44.80;;;;;;5117456;28;20418;-83
2022/05/21 07:27:20;;;;;;;5.10;1.80;;;24.80;44.90;;;;;;5118088;28;20539;-83
2022/05/21 07:29:48;;;;;;;5.73;1.80;;;24.80;44.80;;;;;;5117008;28;20523;-82
2022/05/21 07:32:17;;;;;;;3.43;1.80;;;24.80;44.90;;;;;;5117753;28;20443;-82
2022/05/21 07:34:46;;;;;;;7.17;2.00;;;24.90;44.80;;;;;;5108677;28;20468;-83
2022/05/21 07:37:15;;;;;;;3.00;1.63;;;24.90;45.00;;;;;;5117877;28;20486;-83
2022/05/21 07:39:42;;;;;;;3.27;1.40;;;25.00;44.80;;;;;;5117291;28;20460;-83
2022/05/21 07:42:10;;;;;;;4.43;1.47;;;25.00;44.70;;;;;;5117567;28;20473;-83
2022/05/21 07:44:38;;;;;;;4.00;2.00;;;25.10;45.00;;;;;;5118116;28;20530;-81
2022/05/21 07:47:07;;;;;;;5.83;1.70;;;25.20;44.60;;;;;;5117903;28;20444;-83
2022/05/21 07:49:35;;;;;;;3.57;1.53;;;25.20;44.70;;;;;;5117660;28;20453;-82
2022/05/21 07:52:05;;;;;;;4.53;1.87;;;25.20;44.60;;;;;;5117215;28;20463;-82
2022/05/21 07:54:33;;;;;;;2.90;1.43;;;25.40;44.60;;;;;;5117322;28;20449;-83
2022/05/21 07:57:02;;;;;;;6.23;1.80;;;25.50;44.70;;;;;;5117366;28;20403;-82
2022/05/21 07:59:30;;;;;;;2.83;1.57;;;25.50;44.60;;;;;;5117101;28;20418;-83
2022/05/21 08:01:59;;;;;;;1.93;1.53;;;25.50;44.60;;;;;;5116470;28;20475;-83
2022/05/21 08:04:27;;;;;;;3.03;1.20;;;25.50;44.70;;;;;;5116613;28;20440;-83
2022/05/21 08:06:55;;;;;;;7.90;1.80;;;25.60;44.90;;;;;;5117378;28;20443;-83
2022/05/21 08:09:24;;;;;;;3.93;1.60;;;25.70;44.90;;;;;;5116241;28;20453;-83
2022/05/21 08:11:52;;;;;;;3.33;1.70;;;25.90;44.80;;;;;;5117582;28;20988;-83
2022/05/21 08:14:20;;;;;;;5.20;2.40;;;26.10;44.70;;;;;;5116678;28;20440;-83
2022/05/21 08:16:49;;;;;;;2.03;1.50;;;26.20;44.40;;;;;;5117253;28;20514;-83
2022/05/21 08:19:17;;;;;;;2.80;1.60;;;26.40;44.20;;;;;;5116565;28;20500;-82
2022/05/21 08:21:45;;;;;;;2.40;1.40;;;26.40;44.00;;;;;;5116385;28;20472;-82
2022/05/21 08:27:01;;;;;;;4.70;1.90;;;26.40;44.00;;;;;;5116161;28;20443;-83
2022/05/21 08:29:31;;;;;;;3.43;1.83;;;26.50;44.10;;;;;;5116237;28;20411;-83
2022/05/21 08:32:00;;;;;;;4.73;1.77;;;26.40;43.80;;;;;;5116041;28;20465;-82
2022/05/21 08:34:29;;;;;;;3.80;1.60;;;26.50;43.80;;;;;;5116218;28;20507;-83
2022/05/21 08:36:57;;;;;;;2.27;1.33;;;26.40;43.70;;;;;;5116320;28;20418;-82
2022/05/21 08:39:25;;;;;;;2.10;1.50;;;26.50;44.10;;;;;;5116686;28;20468;-82
2022/05/21 08:41:54;;;;;;;2.37;1.27;;;26.60;44.20;;;;;;5115554;28;20438;-83
2022/05/21 08:44:31;;;;;;;3.60;1.40;;;26.80;44.20;;;;;;5116087;28;20449;-83
2022/05/21 08:47:09;;;;;;;3.40;1.70;;;27.00;44.00;;;;;;5116926;28;20490;-84
2022/05/21 08:49:40;;;;;;;3.27;1.77;;;27.00;44.00;;;;;;5118982;28;20420;-82
2022/05/21 08:52:14;;;;;;;3.30;1.80;;;27.20;43.90;;;;;;5118039;28;20414;-86
2022/05/21 08:54:44;;;;;;;6.17;2.00;;;27.40;43.80;;;;;;5119357;28;20410;-81
2022/05/21 08:57:14;;;;;;;4.60;1.90;;;27.50;43.50;;;;;;5119192;28;20454;-82
2022/05/21 08:59:47;;;;;;;3.67;1.77;;;27.50;43.10;;;;;;5118894;28;20428;-82
2022/05/21 09:02:16;;;;;;;3.17;2.10;;;27.40;43.20;;;;;;5116958;28;20493;-82
2022/05/21 09:04:44;;;;;;;3.87;2.03;;;27.40;43.30;;;;;;5117344;28;20439;-85
2022/05/21 09:07:20;;;;;;;1.70;1.60;;;27.40;43.30;;;;;;5121318;28;20422;-86
2022/05/21 09:09:56;;;;;;;4.50;2.33;;;27.40;43.30;;;;;;5117935;28;20504;-85
2022/05/21 09:12:25;;;;;;;3.27;1.97;;;27.40;43.20;;;;;;5115320;28;20437;-86
2022/05/21 09:14:55;;;;;;;4.13;1.80;;;27.50;43.10;;;;;;5113736;28;20969;-84
2022/05/21 09:17:24;;;;;;;2.80;2.00;;;27.40;43.30;;;;;;5115884;28;20473;-84
2022/05/21 09:19:55;;;;;;;3.67;1.70;;;27.50;43.00;;;;;;5117269;28;20438;-84
2022/05/21 09:22:30;;;;;;;4.80;1.63;;;27.40;43.10;;;;;;5117062;28;20453;-86
2022/05/21 09:25:19;;;;;;;5.00;1.73;;;27.40;43.20;;;;;;5117626;28;20403;-84
2022/05/21 09:27:49;;;;;;;2.13;1.60;;;27.60;43.00;;;;;;5120012;28;20430;-84
2022/05/21 09:30:23;;;;;;;3.07;1.53;;;27.60;42.80;;;;;;5120187;28;20475;-84
2022/05/21 09:32:53;;;;;;;7.33;1.90;;;27.70;42.80;;;;;;5118702;28;20432;-83
2022/05/21 09:35:25;;;;;;;3.50;1.70;;;27.80;42.90;;;;;;5119697;28;20448;-85
2022/05/21 09:37:53;;;;;;;4.37;1.70;;;28.00;42.80;;;;;;5120416;28;20414;-84
2022/05/21 09:40:30;;;;;;;6.13;1.60;;;28.10;42.60;;;;;;5117479;28;20466;-84
2022/05/21 09:45:46;;;;;;;3.73;1.67;;;28.50;42.00;;;;;;5117774;28;20419;-85
2022/05/21 09:48:22;;;;;;;4.00;1.60;;;28.60;41.50;;;;;;5120704;28;20440;-86
2022/05/21 09:50:53;;;;;;;5.73;1.33;;;28.80;41.50;;;;;;5124503;28;20459;-84
2022/05/21 09:53:27;;;;;;;2.87;1.50;;;28.90;41.00;;;;;;5121049;28;20405;-83
2022/05/21 09:56:00;;;;;;;6.37;1.60;;;28.80;40.90;;;;;;5119020;28;20436;-83
2022/05/21 09:58:28;;;;;;;2.20;1.80;;;28.70;40.90;;;;;;5119728;28;20418;-86
2022/05/21 10:00:58;;;;;;;4.50;1.60;;;28.60;40.80;;;;;;5118759;28;20470;-86
2022/05/21 10:03:37;;;;;;;6.40;1.70;;;28.80;41.30;;;;;;5118767;28;20472;-83
2022/05/21 10:06:06;;;;;;;3.43;1.37;;;28.90;40.70;;;;;;5118854;28;20444;-84
2022/05/21 10:11:24;;;;;;;5.17;1.60;;;29.10;40.50;;;;;;5120812;28;20427;-83
2022/05/21 10:13:53;;;;;;;3.57;1.60;;;29.20;40.00;;;;;;5119147;28;20439;-83
2022/05/21 10:16:27;;;;;;;3.37;1.67;;;29.20;39.90;;;;;;5120091;28;20447;-83
2022/05/21 10:18:58;;;;;;;1.90;1.50;;;29.20;39.60;;;;;;5119492;28;20423;-85
2022/05/21 10:21:31;;;;;;;5.60;1.27;;;29.20;39.50;;;;;;5119806;28;20463;-85
2022/05/21 10:24:06;;;;;;;1.40;1.30;;;29.10;39.30;;;;;;5119462;28;21009;-87
2022/05/21 10:26:44;;;;;;;2.30;1.47;;;29.00;39.60;;;;;;5116953;28;20514;-85
2022/05/21 10:29:30;;;;;;;1.80;1.30;;;28.90;39.60;;;;;;5118803;28;20479;-84
2022/05/21 10:32:05;;;;;;;4.57;1.40;;;29.20;40.30;;;;;;5114629;28;20411;-85
2022/05/21 10:34:41;;;;;;;4.40;1.63;;;29.30;39.20;;;;;;5116476;28;20432;-83
2022/05/21 10:37:17;;;;;;;3.23;1.40;;;29.20;39.00;;;;;;5118113;28;20478;-83
2022/05/21 10:39:57;;;;;;;2.43;1.10;;;29.10;39.00;;;;;;5120334;28;20442;-83
2022/05/21 10:42:32;;;;;;;2.73;1.30;;;29.00;39.00;;;;;;5120008;28;20532;-83
2022/05/21 10:45:08;;;;;;;2.13;1.73;;;28.80;39.30;;;;;;5119043;28;20391;-83
2022/05/21 10:47:46;;;;;;;4.30;1.30;;;28.90;39.50;;;;;;5117186;28;20500;-84
2022/05/21 10:50:19;;;;;;;1.93;1.10;;;29.00;39.20;;;;;;5116984;28;20566;-83
2022/05/21 10:52:56;;;;;;;2.20;1.43;;;28.90;39.10;;;;;;5117974;28;20916;-83
2022/05/21 10:55:27;;;;;;;3.27;1.30;;;28.70;39.30;;;;;;5117535;28;20421;-83
2022/05/21 10:58:16;;;;;;;5.50;1.70;;;28.80;39.40;;;;;;5118661;28;20463;-83
2022/05/21 11:00:47;;;;;;;4.30;1.30;;;28.90;39.20;;;;;;5117650;28;20508;-83
2022/05/21 11:03:35;;;;;;;2.97;1.40;;;28.90;39.10;;;;;;5117956;28;20584;-83
2022/05/21 11:06:39;;;;;;;4.63;1.30;;;28.80;39.00;;;;;;5117776;28;20489;-83
2022/05/21 11:09:12;;;;;;;1.53;1.40;;;28.70;39.20;;;;;;5100439;28;20849;-85
2022/05/21 11:11:48;;;;;;;2.57;1.57;;;28.60;39.30;;;;;;5118821;28;20434;-85
2022/05/21 11:14:18;;;;;;;7.03;2.30;;;28.40;37.30;;;;;;5122949;28;20431;-82
2022/05/21 11:16:48;;;;;;;3.77;1.70;;;26.40;38.30;;;;;;5123902;28;20417;-84
2022/05/21 11:19:20;;;;;;;3.73;1.77;;;25.10;41.60;;;;;;5124439;28;20411;-85
2022/05/21 11:22:04;;;;;;;5.90;1.73;;;24.50;43.00;;;;;;5123989;28;20437;-84
2022/05/21 11:24:34;;;;;;;5.07;2.43;;;24.50;44.10;;;;;;5123838;28;20450;-83
2022/05/21 11:27:06;;;;;;;23.30;2.60;;;23.90;44.40;;;;;;5124192;28;20414;-83
2022/05/21 11:29:40;;;;;;;8.37;4.17;;;23.20;43.50;;;;;;5120019;28;20415;-85
2022/05/21 11:37:46;;;;;;;5.73;1.93;;;23.00;45.70;;;;;;5119316;28;20444;-85
2022/05/21 11:40:48;;;;;;;8.90;2.03;;;22.90;46.30;;;;;;5119217;28;20464;-85
2022/05/21 11:43:16;;;;;;;12.87;7.23;;;22.80;46.30;;;;;;5117993;28;20520;-84
2022/05/21 11:46:00;;;;;;;6.27;2.00;;;22.90;47.70;;;;;;5119449;28;20511;-85
2022/05/21 11:48:29;;;;;;;5.13;2.00;;;22.70;46.70;;;;;;5117352;28;20414;-84
2022/05/21 11:51:34;;;;;;;6.60;1.70;;;24.40;45.90;;;;;;5119070;28;20489;-86
2022/05/21 11:54:02;;;;;;;6.23;1.70;;;27.60;40.60;;;;;;5056377;28;20459;-85
2022/05/21 11:57:01;;;;;;;6.00;1.87;;;28.70;37.30;;;;;;5056396;28;20500;-84
2022/05/21 11:59:40;;;;;;;7.33;1.70;;;28.20;36.30;;;;;;5100021;28;20502;-84
2022/05/21 12:02:22;;;;;;;6.00;1.80;;;27.20;36.40;;;;;;5118854;28;20444;-85
2022/05/21 12:04:56;;;;;;;10.00;2.03;;;26.10;38.80;;;;;;5119600;28;20558;-85
2022/05/21 12:07:56;;;;;;;5.70;1.90;;;24.90;40.90;;;;;;5119467;28;20414;-86
2022/05/21 12:11:02;;;;;;;4.47;1.83;;;24.90;41.20;;;;;;5116924;28;20445;-85
2022/05/21 12:13:52;;;;;;;4.00;1.50;;;27.60;40.10;;;;;;5117427;28;20461;-85
2022/05/21 12:16:42;;;;;;;6.37;2.10;;;26.00;38.30;;;;;;5118000;28;20451;-85
2022/05/21 12:19:49;;;;;;;9.63;1.50;;;25.40;40.10;;;;;;5119031;28;20431;-84
2022/05/21 12:22:54;;;;;;;6.33;1.47;;;23.70;42.30;;;;;;5075435;28;20445;-85
2022/05/21 12:26:05;;;;;;;5.70;1.77;;;24.80;43.00;;;;;;5118636;28;20433;-84
2022/05/21 12:28:47;;;;;;;4.23;1.43;;;23.90;42.40;;;;;;5110271;28;20413;-84
2022/05/21 12:31:23;;;;;;;4.27;2.00;;;22.90;43.50;;;;;;5117993;28;20499;-83
2022/05/21 12:34:09;;;;;;;7.07;1.93;;;22.40;45.30;;;;;;5117954;28;20439;-84
2022/05/21 12:36:50;;;;;;;6.33;1.40;;;22.60;45.90;;;;;;5115042;28;20470;-85
2022/05/21 12:39:20;;;;;;;3.40;1.60;;;23.90;46.40;;;;;;5119203;28;20443;-84
2022/05/21 12:41:49;;;;;;;4.23;1.90;;;25.60;39.90;;;;;;5118079;28;20460;-82
2022/05/21 12:44:39;;;;;;;4.03;1.53;;;24.50;41.80;;;;;;5117806;28;20446;-83
2022/05/21 12:47:08;;;;;;;8.20;1.70;;;23.50;42.70;;;;;;5117214;28;20411;-82
2022/05/21 12:49:37;;;;;;;7.23;2.80;;;23.10;44.60;;;;;;5118027;28;20475;-82
2022/05/21 12:55:45;;;;;;;4.67;1.47;;;26.00;42.30;;;;;;5108829;28;20374;-81
2022/05/21 12:58:18;;;;;;;4.23;1.50;;;26.20;39.50;;;;;;5103978;28;20535;-80
2022/05/21 13:00:52;;;;;;;4.93;1.90;;;25.50;41.40;;;;;;5108819;28;20877;-77
2022/05/21 13:03:21;;;;;;;5.53;1.67;;;25.20;42.30;;;;;;5109853;28;20438;-81
2022/05/21 13:05:51;;;;;;;10.00;1.80;;;24.80;42.20;;;;;;5093828;28;20532;-78
2022/05/21 13:08:19;;;;;;;5.03;1.77;;;24.70;43.10;;;;;;5092465;28;20520;-79
2022/05/21 13:11:01;;;;;;;6.70;2.00;;;23.70;44.10;;;;;;5095286;28;20487;-79
2022/05/21 13:13:32;;;;;;;4.80;2.00;;;23.70;44.90;;;;;;5112025;28;20421;-79
2022/05/21 13:16:02;;;;;;;4.73;1.40;;;23.70;45.80;;;;;;5093967;28;20479;-80
2022/05/21 13:18:38;;;;;;;3.53;1.83;;;24.00;44.50;;;;;;5094114;28;20436;-81
2022/05/21 13:21:11;;;;;;;7.23;2.50;;;24.30;44.10;;;;;;5094359;28;20498;-80
2022/05/21 13:23:51;;;;;;;4.77;1.87;;;24.00;43.40;;;;;;5094798;28;20474;-81
2022/05/21 13:26:21;;;;;;;5.57;1.60;;;23.50;44.00;;;;;;5099176;28;20419;-80
2022/05/21 13:28:49;;;;;;;4.00;1.80;;;22.90;45.40;;;;;;5094122;28;20444;-78
2022/05/21 13:31:19;;;;;;;5.97;2.17;;;23.10;45.60;;;;;;5094895;28;20537;-81
2022/05/21 13:33:49;;;;;;;3.47;1.30;;;23.80;45.60;;;;;;5110374;28;20411;-79
2022/05/21 13:36:19;;;;;;;5.43;1.73;;;24.40;45.40;;;;;;5100791;28;20452;-79
2022/05/21 13:38:50;;;;;;;5.87;1.90;;;24.50;43.20;;;;;;5095107;28;20407;-80
2022/05/21 13:41:23;;;;;;;5.30;1.93;;;24.50;43.80;;;;;;5115520;28;20466;-79